createdAt,value
2023-05-22T00:00:16.952Z,4.40
2023-05-22T00:03:05.537Z,4.20
2023-05-22T00:05:39.519Z,6.00
2023-05-22T00:08:13.963Z,6.30
2023-05-22T00:10:42.709Z,2.80
2023-05-22T00:13:10.804Z,2.80
2023-05-22T00:15:39.278Z,3.50
2023-05-22T00:18:08.458Z,5.10
2023-05-22T00:20:39.412Z,5.60
2023-05-22T00:23:13.072Z,3.30
2023-05-22T00:25:42.705Z,3.40
2023-05-22T00:28:12.048Z,4.90
2023-05-22T00:30:40.250Z,2.60
2023-05-22T00:33:08.644Z,2.60
2023-05-22T00:35:36.975Z,5.60
2023-05-22T00:38:06.578Z,5.90
2023-05-22T00:40:34.934Z,3.40
2023-05-22T00:43:08.647Z,4.50
2023-05-22T00:45:37.827Z,4.50
2023-05-22T00:48:06.195Z,6.40
2023-05-22T00:50:34.477Z,4.70
2023-05-22T00:53:02.644Z,7.20
2023-05-22T00:55:31.041Z,4.60
2023-05-22T00:57:59.955Z,5.60
2023-05-22T01:00:28.500Z,5.30
2023-05-22T01:02:57.142Z,5.70
2023-05-22T01:05:25.679Z,6.50
2023-05-22T01:07:54.157Z,5.20
2023-05-22T01:10:22.547Z,6.00
2023-05-22T01:13:09.036Z,6.30
2023-05-22T01:15:57.203Z,7.40
2023-05-22T01:18:55.416Z,4.20
2023-05-22T01:21:53.743Z,6.90
2023-05-22T01:24:56.427Z,8.90
2023-05-22T01:27:42.359Z,6.10
2023-05-22T01:30:41.487Z,4.00
2023-05-22T01:33:12.350Z,5.80
2023-05-22T01:35:44.184Z,7.60
2023-05-22T01:40:42.132Z,4.50
2023-05-22T01:43:10.863Z,4.00
2023-05-22T01:45:39.986Z,6.40
2023-05-22T01:48:08.444Z,5.60
2023-05-22T01:50:36.762Z,4.40
2023-05-22T01:53:11.650Z,6.50
2023-05-22T01:55:50.684Z,6.00
2023-05-22T01:58:50.090Z,3.30
2023-05-22T02:01:22.752Z,8.40
2023-05-22T02:03:57.148Z,4.50
2023-05-22T02:06:32.874Z,3.40
2023-05-22T02:09:03.007Z,4.90
2023-05-22T02:11:34.123Z,4.70
2023-05-22T02:14:03.001Z,4.40
2023-05-22T02:16:31.264Z,4.20
2023-05-22T02:19:06.683Z,4.20
2023-05-22T02:21:36.589Z,5.60
2023-05-22T02:24:05.282Z,4.00
2023-05-22T02:26:33.501Z,4.30
2023-05-22T02:29:01.761Z,5.20
2023-05-22T02:31:30.092Z,5.60
2023-05-22T02:33:58.482Z,4.40
2023-05-22T02:36:27.089Z,5.60
2023-05-22T02:38:55.880Z,4.40
2023-05-22T02:41:25.205Z,5.10
2023-05-22T02:43:53.829Z,5.50
2023-05-22T02:46:22.157Z,5.50
2023-05-22T02:48:50.765Z,5.40
2023-05-22T02:51:19.839Z,7.40
2023-05-22T02:53:48.080Z,6.50
2023-05-22T02:56:16.350Z,6.80
2023-05-22T02:58:44.722Z,6.20
2023-05-22T03:01:12.595Z,6.30
2023-05-22T03:03:40.618Z,8.90
2023-05-22T03:06:10.681Z,6.10
2023-05-22T03:08:41.926Z,6.60
2023-05-22T03:11:10.557Z,11.70
2023-05-22T03:13:38.526Z,6.80
2023-05-22T03:16:06.993Z,5.70
2023-05-22T03:18:36.613Z,7.70
2023-05-22T03:21:05.091Z,8.40
2023-05-22T03:23:33.528Z,4.80
2023-05-22T03:26:01.633Z,5.60
2023-05-22T03:28:32.072Z,7.70
2023-05-22T03:31:00.209Z,6.80
2023-05-22T03:33:32.208Z,5.20
2023-05-22T03:36:01.283Z,4.80
2023-05-22T03:38:29.565Z,7.10
2023-05-22T03:40:57.600Z,6.40
2023-05-22T03:43:26.006Z,5.10
2023-05-22T03:45:54.189Z,8.10
2023-05-22T03:48:22.288Z,5.10
2023-05-22T03:50:51.208Z,10.30
2023-05-22T03:53:19.283Z,5.80
2023-05-22T03:55:47.357Z,5.90
2023-05-22T03:58:15.540Z,8.70
2023-05-22T04:00:43.834Z,5.60
2023-05-22T04:03:19.602Z,5.80
2023-05-22T04:05:48.054Z,9.20
2023-05-22T04:08:16.043Z,8.20
2023-05-22T04:10:48.903Z,8.80
2023-05-22T04:13:17.478Z,10.60
2023-05-22T04:15:46.205Z,10.30
2023-05-22T04:18:14.734Z,8.30
2023-05-22T04:20:45.905Z,9.20
2023-05-22T04:23:14.153Z,9.00
2023-05-22T04:25:42.361Z,8.70
2023-05-22T04:28:10.532Z,8.80
2023-05-22T04:30:40.625Z,12.30
2023-05-22T04:33:08.997Z,11.90
2023-05-22T04:35:37.237Z,10.30
2023-05-22T04:38:06.425Z,7.70
2023-05-22T04:40:34.601Z,6.90
2023-05-22T04:43:03.599Z,7.00
2023-05-22T04:45:33.165Z,8.80
2023-05-22T04:48:02.876Z,10.10
2023-05-22T04:50:36.348Z,10.90
2023-05-22T04:53:05.933Z,15.00
2023-05-22T04:55:34.328Z,7.90
2023-05-22T04:58:02.974Z,11.00
2023-05-22T05:00:31.363Z,12.50
2023-05-22T05:03:00.750Z,16.20
2023-05-22T05:05:29.007Z,13.00
2023-05-22T05:07:57.614Z,13.80
2023-05-22T05:10:25.992Z,10.90
2023-05-22T05:12:54.454Z,11.40
2023-05-22T05:15:23.950Z,13.40
2023-05-22T05:17:52.053Z,14.30
2023-05-22T05:20:20.874Z,10.60
2023-05-22T05:22:48.913Z,12.10
2023-05-22T05:25:18.457Z,9.70
2023-05-22T05:27:46.770Z,9.00
2023-05-22T05:30:16.178Z,16.10
2023-05-22T05:33:17.746Z,10.40
2023-05-22T05:36:21.454Z,11.10
2023-05-22T05:38:50.378Z,15.00
2023-05-22T05:41:19.208Z,25.20
2023-05-22T05:43:49.593Z,18.20
2023-05-22T05:46:18.610Z,15.40
2023-05-22T05:48:46.753Z,14.80
2023-05-22T05:51:16.160Z,19.00
2023-05-22T05:53:45.003Z,12.90
2023-05-22T05:56:13.213Z,13.60
2023-05-22T05:58:41.460Z,10.30
2023-05-22T06:01:35.460Z,12.70
2023-05-22T06:04:05.786Z,9.50
2023-05-22T06:06:36.622Z,6.00
2023-05-22T06:09:25.690Z,9.30
2023-05-22T06:12:14.520Z,7.80
2023-05-22T06:14:45.260Z,9.80
2023-05-22T06:17:13.882Z,5.70
2023-05-22T06:19:42.791Z,4.70
2023-05-22T06:22:11.217Z,10.10
2023-05-22T06:24:40.820Z,7.50
2023-05-22T06:27:13.730Z,7.10
2023-05-22T06:29:42.411Z,7.60
2023-05-22T06:32:10.626Z,5.40
2023-05-22T06:34:40.606Z,5.90
2023-05-22T06:37:09.572Z,8.00
2023-05-22T06:39:40.843Z,6.70
2023-05-22T06:42:14.135Z,9.30
2023-05-22T06:45:00.682Z,4.40
2023-05-22T06:47:35.273Z,5.60
2023-05-22T06:50:03.940Z,4.50
2023-05-22T06:52:33.786Z,4.30
2023-05-22T06:55:05.812Z,4.20
2023-05-22T06:57:37.581Z,3.60
2023-05-22T07:00:12.311Z,9.60
2023-05-22T07:03:02.181Z,3.20
2023-05-22T07:05:34.381Z,5.60
2023-05-22T07:08:03.023Z,3.40
2023-05-22T07:10:31.414Z,5.20
2023-05-22T07:13:00.110Z,5.10
2023-05-22T07:15:28.736Z,2.50
2023-05-22T07:17:57.942Z,4.40
2023-05-22T07:20:26.403Z,7.60
2023-05-22T07:23:03.921Z,5.20
2023-05-22T07:25:32.434Z,4.40
2023-05-22T07:28:04.184Z,4.50
2023-05-22T07:30:32.572Z,8.20
2023-05-22T07:33:01.590Z,2.40
2023-05-22T07:35:29.746Z,4.10
2023-05-22T07:37:57.895Z,6.80
2023-05-22T07:40:27.057Z,4.50
2023-05-22T07:42:55.418Z,6.40
2023-05-22T07:45:23.550Z,2.70
2023-05-22T07:47:54.049Z,4.50
2023-05-22T07:50:26.654Z,5.80
2023-05-22T07:52:55.030Z,4.40
2023-05-22T07:55:23.632Z,8.20
2023-05-22T07:57:52.958Z,6.90
2023-05-22T08:00:28.867Z,2.10
2023-05-22T08:02:57.375Z,4.00
2023-05-22T08:05:25.759Z,3.80
2023-05-22T08:07:53.891Z,3.20
2023-05-22T08:10:37.243Z,4.90
2023-05-22T08:13:16.828Z,4.40
2023-05-22T08:15:45.175Z,3.80
2023-05-22T08:18:13.743Z,4.40
2023-05-22T08:20:42.004Z,8.20
2023-05-22T08:23:10.079Z,10.30
2023-05-22T08:25:38.450Z,4.90
2023-05-22T08:28:06.532Z,2.90
2023-05-22T08:30:34.573Z,3.20
2023-05-22T08:33:03.005Z,3.90
2023-05-22T08:35:31.134Z,6.30
2023-05-22T08:37:59.029Z,5.10
2023-05-22T08:40:38.171Z,5.70
2023-05-22T08:43:07.089Z,6.10
2023-05-22T08:45:35.412Z,3.80
2023-05-22T08:48:07.051Z,5.30
2023-05-22T08:55:37.616Z,4.90
2023-05-22T08:58:06.887Z,6.00
2023-05-22T09:00:35.397Z,4.10
2023-05-22T09:03:06.937Z,4.60
2023-05-22T09:05:36.437Z,3.50
2023-05-22T09:08:16.046Z,5.20
2023-05-22T09:10:48.157Z,3.30
2023-05-22T09:13:28.401Z,2.60
2023-05-22T09:16:10.346Z,3.10
2023-05-22T09:18:39.026Z,3.90
2023-05-22T09:21:21.720Z,3.80
2023-05-22T09:24:01.450Z,8.40
2023-05-22T09:26:30.595Z,3.70
2023-05-22T09:29:00.066Z,6.70
2023-05-22T09:31:31.914Z,3.30
2023-05-22T09:34:00.055Z,3.90
2023-05-22T09:36:34.603Z,5.30
2023-05-22T09:39:04.564Z,3.20
2023-05-22T09:41:37.964Z,5.10
2023-05-22T09:44:16.353Z,5.20
2023-05-22T09:46:46.580Z,2.50
2023-05-22T09:49:16.753Z,3.30
2023-05-22T09:51:49.463Z,3.10
2023-05-22T09:54:19.982Z,3.50
2023-05-22T09:56:50.612Z,3.40
2023-05-22T09:59:27.394Z,3.10
2023-05-22T10:01:56.202Z,4.40
2023-05-22T10:04:25.973Z,1.90
2023-05-22T10:06:58.099Z,3.40
2023-05-22T10:09:31.389Z,4.90
2023-05-22T10:12:05.866Z,6.20
2023-05-22T10:14:36.048Z,2.80
2023-05-22T10:17:04.944Z,3.50
2023-05-22T10:19:35.232Z,4.90
2023-05-22T10:22:05.238Z,3.50
2023-05-22T10:24:34.213Z,5.30
2023-05-22T10:27:02.473Z,3.30
2023-05-22T10:29:45.310Z,4.10
2023-05-22T10:32:38.582Z,4.00
2023-05-22T10:35:36.284Z,2.40
2023-05-22T10:38:38.106Z,7.60
2023-05-22T10:41:07.319Z,4.40
2023-05-22T10:43:41.661Z,5.20
2023-05-22T10:46:12.188Z,3.30
2023-05-22T10:48:41.859Z,3.50
2023-05-22T10:51:10.267Z,3.10
2023-05-22T10:53:40.902Z,6.30
2023-05-22T10:56:16.120Z,2.70
2023-05-22T10:59:05.473Z,4.90
2023-05-22T11:01:36.572Z,3.30
2023-05-22T11:04:19.241Z,6.30
2023-05-22T11:07:08.934Z,3.10
2023-05-22T11:09:46.346Z,2.80
2023-05-22T11:12:19.548Z,3.10
2023-05-22T11:14:56.717Z,5.00
2023-05-22T11:17:30.060Z,2.80
2023-05-22T11:20:08.490Z,4.70
2023-05-22T11:22:38.163Z,3.00
2023-05-22T11:25:27.571Z,3.40
2023-05-22T11:27:56.513Z,3.40
2023-05-22T11:30:28.659Z,3.90
2023-05-22T11:32:58.871Z,4.70
2023-05-22T11:35:28.158Z,5.50
2023-05-22T11:37:56.600Z,2.90
2023-05-22T11:40:29.703Z,7.40
2023-05-22T11:42:58.071Z,3.00
2023-05-22T11:45:27.301Z,3.50
2023-05-22T11:47:56.799Z,5.00
2023-05-22T11:50:41.011Z,2.50
2023-05-22T11:53:11.181Z,2.50
2023-05-22T11:55:39.245Z,2.40
2023-05-22T11:58:07.189Z,4.40
2023-05-22T12:00:35.284Z,4.20
2023-05-22T12:03:04.461Z,4.10
2023-05-22T12:05:32.756Z,3.70
2023-05-22T12:08:01.254Z,3.20
2023-05-22T12:10:29.534Z,2.70
2023-05-22T12:12:58.086Z,2.90
2023-05-22T12:15:27.043Z,2.70
2023-05-22T12:17:56.288Z,2.50
2023-05-22T12:20:30.807Z,4.80
2023-05-22T12:23:00.030Z,8.10
2023-05-22T12:25:36.191Z,3.50
2023-05-22T12:28:06.551Z,3.80
2023-05-22T12:30:42.395Z,4.20
2023-05-22T12:33:17.292Z,3.00
2023-05-22T12:35:45.258Z,2.90
2023-05-22T12:38:13.702Z,3.30
2023-05-22T12:40:41.936Z,2.40
2023-05-22T12:43:10.146Z,2.60
2023-05-22T12:45:41.020Z,3.80
2023-05-22T12:48:09.788Z,2.30
2023-05-22T12:50:38.404Z,3.50
2023-05-22T12:53:06.813Z,2.20
2023-05-22T12:55:35.190Z,3.50
2023-05-22T12:58:03.263Z,3.80
2023-05-22T13:00:31.267Z,3.10
2023-05-22T13:02:59.502Z,3.40
2023-05-22T13:05:27.884Z,5.60
2023-05-22T13:07:56.154Z,5.10
2023-05-22T13:10:24.344Z,2.40
2023-05-22T13:12:52.647Z,5.30
2023-05-22T13:15:20.737Z,3.30
2023-05-22T13:17:48.920Z,3.70
2023-05-22T13:20:17.148Z,4.00
2023-05-22T13:22:45.209Z,3.90
2023-05-22T13:25:13.726Z,2.90
2023-05-22T13:27:41.794Z,4.60
2023-05-22T13:30:10.521Z,7.10
2023-05-22T13:32:38.704Z,2.70
2023-05-22T13:35:07.826Z,4.20
2023-05-22T13:37:36.168Z,2.90
2023-05-22T13:40:04.889Z,3.60
2023-05-22T13:42:32.928Z,3.50
2023-05-22T13:45:00.882Z,2.60
2023-05-22T13:47:29.058Z,4.20
2023-05-22T13:49:57.210Z,5.10
2023-05-22T13:52:25.651Z,3.60
2023-05-22T13:54:54.108Z,3.50
2023-05-22T13:57:22.058Z,5.40
2023-05-22T13:59:50.351Z,5.50
2023-05-22T14:02:20.864Z,4.70
2023-05-22T14:04:49.973Z,4.20
2023-05-22T14:07:18.277Z,3.80
2023-05-22T14:09:46.189Z,4.10
2023-05-22T14:12:14.254Z,3.90
2023-05-22T14:14:42.358Z,4.20
2023-05-22T14:17:10.439Z,4.80
2023-05-22T14:19:39.105Z,3.10
2023-05-22T14:22:07.391Z,3.20
2023-05-22T14:24:35.803Z,4.10
2023-05-22T14:27:04.032Z,4.20
2023-05-22T14:29:32.208Z,2.50
2023-05-22T14:32:04.802Z,4.40
2023-05-22T14:34:33.278Z,2.60
2023-05-22T14:37:01.334Z,3.70
2023-05-22T14:39:29.690Z,5.90
2023-05-22T14:41:58.089Z,4.00
2023-05-22T14:44:26.275Z,8.70
2023-05-22T14:46:54.846Z,2.60
2023-05-22T14:49:22.915Z,4.40
2023-05-22T14:51:51.075Z,4.60
2023-05-22T14:54:20.296Z,2.30
2023-05-22T14:56:48.416Z,4.20
2023-05-22T14:59:16.949Z,4.80
2023-05-22T15:01:50.110Z,2.30
2023-05-22T15:04:18.634Z,3.30
2023-05-22T15:06:46.858Z,4.40
2023-05-22T15:09:15.176Z,4.00
2023-05-22T15:11:46.935Z,4.80
2023-05-22T15:14:15.667Z,3.10
2023-05-22T15:16:43.840Z,3.10
2023-05-22T15:19:12.523Z,4.10
2023-05-22T15:21:42.321Z,3.90
2023-05-22T15:24:10.770Z,3.80
2023-05-22T15:26:39.027Z,4.40
2023-05-22T15:29:07.101Z,3.20
2023-05-22T15:31:35.339Z,4.60
2023-05-22T15:34:03.512Z,8.60
2023-05-22T15:36:35.102Z,5.00
2023-05-22T15:39:03.564Z,4.50
2023-05-22T15:41:32.161Z,4.20
2023-05-22T15:44:00.239Z,4.00
2023-05-22T15:46:28.611Z,2.80
2023-05-22T15:48:56.695Z,2.50
2023-05-22T15:51:24.958Z,5.70
2023-05-22T15:53:53.003Z,3.20
2023-05-22T15:56:21.750Z,3.70
2023-05-22T15:58:50.050Z,3.00
2023-05-22T16:01:18.525Z,4.80
2023-05-22T16:03:46.821Z,3.90
2023-05-22T16:06:15.042Z,2.20
2023-05-22T16:08:43.216Z,3.00
2023-05-22T16:11:11.378Z,9.70
2023-05-22T16:13:39.982Z,5.50
2023-05-22T16:16:08.507Z,3.20
2023-05-22T16:18:36.619Z,2.40
2023-05-22T16:21:05.307Z,3.70
2023-05-22T16:23:33.289Z,5.30
2023-05-22T16:26:01.468Z,4.70
2023-05-22T16:28:29.731Z,4.60
2023-05-22T16:30:57.883Z,6.50
2023-05-22T16:33:26.782Z,3.30
2023-05-22T16:35:54.950Z,3.20
2023-05-22T16:38:23.120Z,1.90
2023-05-22T16:40:53.130Z,3.90
2023-05-22T16:43:21.763Z,5.30
2023-05-22T16:45:51.528Z,4.10
2023-05-22T16:48:20.351Z,5.30
2023-05-22T16:50:48.905Z,6.90
2023-05-22T16:53:17.501Z,7.00
2023-05-22T16:55:45.872Z,3.90
2023-05-22T16:58:14.302Z,5.40
2023-05-22T17:00:43.002Z,6.50
2023-05-22T17:03:12.158Z,7.50
2023-05-22T17:05:41.137Z,7.20
2023-05-22T17:08:09.461Z,3.50
2023-05-22T17:10:37.499Z,3.20
2023-05-22T17:13:06.652Z,4.60
2023-05-22T17:15:35.046Z,4.80
2023-05-22T17:18:03.337Z,4.10
2023-05-22T17:20:34.445Z,6.70
2023-05-22T17:23:02.721Z,4.60
2023-05-22T17:25:30.634Z,5.10
2023-05-22T17:27:58.661Z,6.20
2023-05-22T17:30:26.741Z,3.40
2023-05-22T17:32:57.183Z,6.80
2023-05-22T17:35:25.569Z,10.90
2023-05-22T17:37:53.814Z,8.00
2023-05-22T17:40:29.584Z,6.70
2023-05-22T17:43:08.527Z,4.40
2023-05-22T17:45:36.520Z,7.70
2023-05-22T17:48:04.989Z,6.60
2023-05-22T17:50:33.022Z,5.10
2023-05-22T17:53:00.953Z,11.00
2023-05-22T17:55:29.203Z,6.80
2023-05-22T17:57:57.530Z,5.30
2023-05-22T18:00:25.862Z,7.10
2023-05-22T18:02:54.258Z,3.10
2023-05-22T18:05:22.553Z,9.00
2023-05-22T18:07:50.935Z,6.40
2023-05-22T18:10:20.775Z,4.40
2023-05-22T18:12:49.019Z,5.90
2023-05-22T18:15:17.370Z,4.50
2023-05-22T18:17:45.579Z,6.30
2023-05-22T18:20:13.871Z,5.90
2023-05-22T18:22:41.924Z,6.00
2023-05-22T18:25:11.035Z,7.30
2023-05-22T18:27:39.284Z,7.00
2023-05-22T18:30:08.170Z,5.00
2023-05-22T18:32:36.967Z,5.90
2023-05-22T18:35:05.891Z,8.10
2023-05-22T18:37:34.017Z,5.90
2023-05-22T18:40:02.011Z,6.20
2023-05-22T18:42:29.969Z,6.10
2023-05-22T18:44:58.967Z,5.40
2023-05-22T18:47:27.806Z,7.40
2023-05-22T18:49:56.059Z,9.80
2023-05-22T18:52:24.755Z,11.50
2023-05-22T18:54:52.881Z,7.50
2023-05-22T18:57:21.209Z,6.80
2023-05-22T18:59:49.888Z,4.70
2023-05-22T19:02:21.855Z,7.60
2023-05-22T19:07:18.973Z,6.00
2023-05-22T19:09:47.249Z,6.20
2023-05-22T19:12:15.643Z,6.60
2023-05-22T19:14:44.126Z,7.10
2023-05-22T19:17:12.759Z,6.50
2023-05-22T19:19:42.536Z,8.50
2023-05-22T19:22:11.184Z,7.40
2023-05-22T19:24:39.496Z,6.30
2023-05-22T19:27:07.945Z,5.30
2023-05-22T19:29:36.115Z,4.40
2023-05-22T19:32:04.308Z,2.90
2023-05-22T19:34:32.772Z,5.40
2023-05-22T19:37:01.088Z,4.90
2023-05-22T19:39:29.020Z,4.80
2023-05-22T19:41:57.076Z,4.10
2023-05-22T19:44:25.106Z,4.10
2023-05-22T19:46:53.489Z,6.60
2023-05-22T19:49:21.547Z,5.30
2023-05-22T19:51:49.740Z,4.90
2023-05-22T19:54:18.298Z,5.40
2023-05-22T19:56:46.540Z,6.90
2023-05-22T19:59:14.573Z,8.30
2023-05-22T20:01:42.500Z,7.50
2023-05-22T20:04:10.866Z,7.90
2023-05-22T20:06:39.126Z,7.50
2023-05-22T20:09:07.198Z,6.10
2023-05-22T20:11:35.971Z,9.20
2023-05-22T20:14:03.949Z,8.40
2023-05-22T20:16:31.926Z,6.40
2023-05-22T20:18:59.986Z,7.90
2023-05-22T20:21:28.303Z,4.40
2023-05-22T20:23:56.838Z,9.10
2023-05-22T20:26:25.311Z,5.40
2023-05-22T20:28:53.356Z,5.60
2023-05-22T20:31:21.694Z,6.50
2023-05-22T20:33:49.730Z,7.20
2023-05-22T20:36:18.868Z,7.70
2023-05-22T20:38:46.823Z,4.80
2023-05-22T20:41:15.535Z,7.80
2023-05-22T20:43:43.686Z,6.00
2023-05-22T20:46:12.692Z,3.90
2023-05-22T20:48:46.976Z,4.90
2023-05-22T20:51:21.687Z,7.90
2023-05-22T20:53:52.801Z,5.40
2023-05-22T20:56:21.553Z,6.60
2023-05-22T20:58:49.890Z,3.90
2023-05-22T21:01:18.108Z,4.00
2023-05-22T21:03:46.277Z,8.40
2023-05-22T21:06:14.245Z,11.40
2023-05-22T21:08:42.274Z,8.20
2023-05-22T21:11:10.572Z,6.70
2023-05-22T21:13:38.701Z,7.20
2023-05-22T21:16:07.157Z,6.50
2023-05-22T21:18:35.209Z,9.10
2023-05-22T21:21:03.438Z,8.40
2023-05-22T21:23:31.369Z,7.80
2023-05-22T21:25:59.404Z,10.50
2023-05-22T21:28:27.913Z,11.40
2023-05-22T21:30:56.321Z,15.80
2023-05-22T21:33:24.623Z,7.40
2023-05-22T21:35:52.560Z,8.80
2023-05-22T21:38:20.661Z,9.00
2023-05-22T21:40:49.013Z,10.90
2023-05-22T21:43:17.070Z,7.50
2023-05-22T21:45:45.180Z,9.10
2023-05-22T21:48:13.159Z,9.00
2023-05-22T21:50:41.550Z,10.40
2023-05-22T21:53:09.804Z,10.00
2023-05-22T21:55:37.772Z,7.10
2023-05-22T21:58:05.938Z,8.60
2023-05-22T22:00:34.214Z,5.00
2023-05-22T22:03:02.910Z,5.40
2023-05-22T22:05:31.112Z,6.30
2023-05-22T22:07:59.298Z,6.70
2023-05-22T22:10:27.276Z,9.90
2023-05-22T22:12:55.196Z,6.20
2023-05-22T22:15:23.174Z,6.00
2023-05-22T22:17:52.384Z,6.60
2023-05-22T22:20:30.411Z,6.50
2023-05-22T22:23:08.052Z,8.70
2023-05-22T22:25:36.590Z,6.90
2023-05-22T22:28:04.944Z,9.30
2023-05-22T22:30:32.970Z,5.20
2023-05-22T22:33:01.517Z,4.70
2023-05-22T22:35:29.694Z,4.90
2023-05-22T22:37:58.071Z,4.70
2023-05-22T22:40:26.959Z,4.10
2023-05-22T22:42:55.431Z,6.00
2023-05-22T22:45:23.803Z,6.30
2023-05-22T22:47:52.841Z,4.60
2023-05-22T22:50:21.569Z,5.80
2023-05-22T22:52:50.002Z,5.90
2023-05-22T22:55:18.564Z,7.00
2023-05-22T22:57:50.160Z,7.70
2023-05-22T23:00:19.457Z,12.20
2023-05-22T23:02:47.878Z,5.80
2023-05-22T23:05:20.365Z,9.20
2023-05-22T23:07:48.998Z,9.80
2023-05-22T23:10:17.478Z,7.70
2023-05-22T23:12:48.201Z,9.00
2023-05-22T23:15:16.687Z,7.00
2023-05-22T23:17:44.837Z,9.10
2023-05-22T23:20:13.650Z,7.30
2023-05-22T23:22:41.790Z,7.50
2023-05-22T23:25:10.166Z,6.40
2023-05-22T23:27:38.213Z,10.20
2023-05-22T23:30:08.241Z,8.30
2023-05-22T23:32:36.288Z,6.40
2023-05-22T23:35:05.712Z,6.60
2023-05-22T23:37:33.915Z,6.30
2023-05-22T23:40:02.005Z,6.80
2023-05-22T23:42:30.277Z,4.30
2023-05-22T23:44:58.615Z,5.00
2023-05-22T23:47:26.876Z,4.60
2023-05-22T23:49:56.699Z,4.40
2023-05-22T23:52:24.924Z,4.50
2023-05-22T23:54:53.056Z,4.40
2023-05-22T23:57:21.456Z,7.30
2023-05-22T23:59:49.834Z,4.80
